Time;durP1;ratioP1;P1;durP2;ratioP2;P2;SDS_P1;SDS_P2;PMS_P1;PMS_P2;Temp;Humidity;BMP_temperature;BMP_pressure;BME280_temperature;BME280_humidity;BME280_pressure;Samples;Min_cycle;Max_cycle;Signal;HPM_P1;HPM_P2
2023/04/30 00:00:12;;;;;;;5.15;1.90;;;7.50;99.90;;;;;;5095592;28;20123;-73
2023/04/30 00:02:38;;;;;;;4.57;1.80;;;7.50;99.90;;;;;;5078328;28;20034;-73
2023/04/30 00:05:04;;;;;;;3.95;1.83;;;7.50;99.90;;;;;;5101017;28;20180;-73
2023/04/30 00:07:30;;;;;;;3.22;1.60;;;7.40;99.90;;;;;;5115931;28;20047;-73
2023/04/30 00:09:56;;;;;;;5.68;1.80;;;7.40;99.90;;;;;;5108661;28;20048;-73
2023/04/30 00:12:22;;;;;;;8.40;2.13;;;7.30;99.90;;;;;;5095000;28;20047;-73
2023/04/30 00:14:48;;;;;;;5.88;2.20;;;7.30;99.90;;;;;;5097964;28;20040;-72
2023/04/30 00:17:14;;;;;;;6.32;2.10;;;7.30;99.90;;;;;;5098772;28;20031;-72
2023/04/30 00:19:40;;;;;;;6.07;2.45;;;7.30;99.90;;;;;;5108878;28;20122;-73
2023/04/30 00:22:06;;;;;;;6.88;2.53;;;7.30;99.90;;;;;;5115262;28;20471;-72
2023/04/30 00:24:32;;;;;;;4.47;1.75;;;7.30;99.90;;;;;;5085318;28;20051;-72
2023/04/30 00:26:58;;;;;;;7.72;2.10;;;7.30;99.90;;;;;;5094776;28;20040;-72
2023/04/30 00:29:23;;;;;;;5.50;2.10;;;7.20;99.90;;;;;;5094126;28;20399;-72
2023/04/30 00:31:49;;;;;;;6.13;2.55;;;7.30;99.90;;;;;;5094726;28;20460;-72
2023/04/30 00:34:15;;;;;;;6.28;2.35;;;7.30;99.90;;;;;;5094526;28;20427;-72
2023/04/30 00:36:40;;;;;;;2.85;1.60;;;7.20;99.90;;;;;;5094567;28;20040;-72
2023/04/30 00:39:06;;;;;;;3.33;1.50;;;7.20;99.90;;;;;;5095914;28;20032;-72
2023/04/30 00:41:34;;;;;;;3.88;1.35;;;7.10;99.90;;;;;;5089075;28;20032;-72
2023/04/30 00:44:01;;;;;;;2.33;1.30;;;7.10;99.90;;;;;;5096665;28;20436;-72
2023/04/30 00:46:27;;;;;;;2.83;1.30;;;7.10;99.90;;;;;;5097295;28;20044;-72
2023/04/30 00:48:53;;;;;;;3.47;1.20;;;7.10;99.90;;;;;;5097769;28;20443;-73
2023/04/30 00:51:19;;;;;;;3.65;1.83;;;7.00;99.90;;;;;;5080140;28;20078;-72
2023/04/30 00:53:45;;;;;;;3.53;1.60;;;6.90;99.90;;;;;;5111329;28;20040;-72
2023/04/30 00:56:14;;;;;;;4.65;1.77;;;6.90;99.90;;;;;;5094318;28;20404;-73
2023/04/30 00:58:40;;;;;;;2.13;1.23;;;6.90;99.90;;;;;;5077325;28;20071;-72
2023/04/30 01:01:06;;;;;;;1.13;1.00;;;6.80;99.90;;;;;;5109544;28;20066;-72
2023/04/30 01:03:32;;;;;;;2.17;1.20;;;6.80;99.90;;;;;;5097400;28;20495;-72
2023/04/30 01:05:57;;;;;;;2.30;1.20;;;6.80;99.90;;;;;;5114269;28;20062;-72
2023/04/30 01:08:23;;;;;;;1.92;1.13;;;6.80;99.90;;;;;;5097391;28;20083;-72
2023/04/30 01:11:09;;;;;;;1.98;1.35;;;6.70;99.90;;;;;;5083143;28;20039;-72
2023/04/30 01:13:44;;;;;;;1.80;0.85;;;6.70;99.90;;;;;;5077877;28;20051;-72
2023/04/30 01:16:25;;;;;;;0.70;0.70;;;6.70;99.90;;;;;;5093880;28;20523;-72
2023/04/30 01:18:56;;;;;;;3.50;1.50;;;6.70;99.90;;;;;;5093806;28;20492;-72
2023/04/30 01:21:23;;;;;;;2.78;1.52;;;6.70;99.90;;;;;;5076640;28;20040;-72
2023/04/30 01:24:09;;;;;;;3.72;1.70;;;6.60;99.90;;;;;;5078746;28;20097;-73
2023/04/30 01:26:45;;;;;;;2.63;1.42;;;6.50;99.90;;;;;;5114282;28;20411;-73
2023/04/30 01:29:15;;;;;;;1.67;1.10;;;6.60;99.90;;;;;;5096656;28;20040;-72
2023/04/30 01:31:42;;;;;;;2.08;0.80;;;6.50;99.90;;;;;;5113913;28;20046;-72
2023/04/30 01:34:08;;;;;;;1.30;0.73;;;6.50;99.90;;;;;;5113695;28;20073;-73
2023/04/30 01:36:59;;;;;;;0.88;0.70;;;6.50;99.90;;;;;;5092822;28;20038;-73
2023/04/30 01:39:53;;;;;;;3.28;1.70;;;6.50;99.90;;;;;;5100482;28;20035;-73
2023/04/30 01:42:21;;;;;;;4.60;2.10;;;6.50;99.90;;;;;;5110440;28;20122;-73
2023/04/30 01:45:28;;;;;;;4.88;2.00;;;6.40;99.90;;;;;;5112626;28;20042;-73
2023/04/30 01:48:12;;;;;;;6.10;2.28;;;6.40;99.90;;;;;;5038335;28;20048;-73
2023/04/30 01:50:42;;;;;;;3.08;1.10;;;6.40;99.90;;;;;;5086615;28;20060;-73
2023/04/30 01:53:31;;;;;;;1.10;0.90;;;6.30;99.90;;;;;;5121510;27;20118;-72
2023/04/30 01:56:01;;;;;;;7.05;2.78;;;6.30;99.90;;;;;;5098003;28;20113;-72
2023/04/30 01:58:29;;;;;;;7.55;3.10;;;6.20;99.90;;;;;;5092365;28;20035;-73
2023/04/30 02:00:54;;;;;;;9.65;3.72;;;6.20;99.90;;;;;;5093390;28;20040;-73
2023/04/30 02:03:20;;;;;;;12.00;6.35;;;6.20;99.90;;;;;;5105828;28;20041;-72
2023/04/30 02:05:47;;;;;;;11.80;6.05;;;6.10;99.90;;;;;;5096243;28;20044;-72
2023/04/30 02:08:12;;;;;;;13.77;7.03;;;6.10;99.90;;;;;;5110537;28;20074;-72
2023/04/30 02:10:38;;;;;;;12.23;5.78;;;6.20;99.90;;;;;;5081328;28;20453;-72
2023/04/30 02:13:03;;;;;;;11.25;5.10;;;6.20;99.90;;;;;;5110891;27;20491;-73
2023/04/30 02:15:29;;;;;;;11.90;5.03;;;6.20;99.90;;;;;;5100995;28;20119;-72
2023/04/30 02:17:55;;;;;;;11.00;5.28;;;6.20;99.90;;;;;;5104943;28;20119;-73
2023/04/30 02:20:20;;;;;;;10.05;5.05;;;6.20;99.90;;;;;;5083421;28;20074;-72
2023/04/30 02:22:46;;;;;;;11.93;4.68;;;6.10;99.90;;;;;;5092563;28;20463;-72
2023/04/30 02:25:13;;;;;;;9.48;4.10;;;6.00;99.90;;;;;;5099313;28;20043;-73
2023/04/30 02:27:39;;;;;;;8.52;3.90;;;5.90;99.90;;;;;;5077950;28;20481;-73
2023/04/30 02:30:05;;;;;;;10.48;4.53;;;5.90;99.90;;;;;;5092073;28;20067;-73
2023/04/30 02:32:30;;;;;;;8.15;4.32;;;6.00;99.90;;;;;;5107810;28;20039;-73
2023/04/30 02:34:56;;;;;;;7.50;4.03;;;6.00;99.90;;;;;;5110626;28;20118;-73
2023/04/30 02:37:22;;;;;;;8.10;3.47;;;5.90;99.90;;;;;;5092700;28;20165;-73
2023/04/30 02:39:47;;;;;;;8.60;4.00;;;5.90;99.90;;;;;;5094929;28;20062;-72
2023/04/30 02:42:13;;;;;;;8.88;3.28;;;5.90;99.90;;;;;;5087506;28;20436;-73
2023/04/30 02:44:39;;;;;;;4.57;2.05;;;5.90;99.90;;;;;;5095222;28;20031;-72
2023/04/30 02:47:04;;;;;;;3.92;1.55;;;5.90;99.90;;;;;;5094448;28;20035;-72
2023/04/30 02:49:30;;;;;;;3.85;1.50;;;5.90;99.90;;;;;;5080048;28;20048;-73
2023/04/30 02:51:56;;;;;;;3.10;1.17;;;5.90;99.90;;;;;;5102086;28;20039;-73
2023/04/30 02:54:21;;;;;;;2.03;1.10;;;5.80;99.90;;;;;;5093648;28;20504;-73
2023/04/30 02:56:47;;;;;;;1.10;1.00;;;5.80;99.90;;;;;;5111394;28;20054;-73
2023/04/30 02:59:12;;;;;;;2.47;1.20;;;5.80;99.90;;;;;;5094906;28;20496;-73
2023/04/30 03:01:38;;;;;;;3.65;1.60;;;5.70;99.90;;;;;;5111245;28;20399;-73
2023/04/30 03:04:04;;;;;;;5.60;2.10;;;5.60;99.90;;;;;;5112267;28;20051;-73
2023/04/30 03:06:33;;;;;;;3.88;1.90;;;5.50;99.90;;;;;;5092808;28;20043;-73
2023/04/30 03:08:59;;;;;;;4.72;2.10;;;5.50;99.90;;;;;;5111455;28;20052;-72
2023/04/30 03:11:25;;;;;;;6.50;2.42;;;5.40;99.90;;;;;;5095904;28;20441;-73
2023/04/30 03:13:51;;;;;;;6.57;2.47;;;5.40;99.90;;;;;;5097670;27;20550;-72
2023/04/30 03:16:18;;;;;;;5.10;2.30;;;5.40;99.90;;;;;;5115288;28;20043;-73
2023/04/30 03:18:45;;;;;;;6.68;2.70;;;5.30;99.90;;;;;;5099842;28;20071;-72
2023/04/30 03:21:10;;;;;;;6.47;2.70;;;5.20;99.90;;;;;;5114652;28;20537;-73
2023/04/30 03:23:36;;;;;;;7.50;2.55;;;5.10;99.90;;;;;;5099492;28;20039;-73
2023/04/30 03:26:02;;;;;;;5.50;2.67;;;5.10;99.90;;;;;;5091869;28;20036;-73
2023/04/30 03:28:27;;;;;;;6.82;2.60;;;5.10;99.90;;;;;;5116311;28;20092;-73
2023/04/30 03:30:53;;;;;;;7.38;2.65;;;5.10;99.90;;;;;;5097704;28;20048;-73
2023/04/30 03:33:19;;;;;;;4.60;2.22;;;5.10;99.90;;;;;;5116157;28;20035;-73
2023/04/30 03:35:44;;;;;;;6.85;2.38;;;5.10;99.90;;;;;;5102165;28;20032;-73
2023/04/30 03:38:10;;;;;;;4.70;2.25;;;5.10;99.90;;;;;;5099130;28;20122;-73
2023/04/30 03:40:35;;;;;;;6.55;2.30;;;5.10;99.90;;;;;;5096968;28;20054;-73
2023/04/30 03:43:01;;;;;;;6.90;2.60;;;5.10;99.90;;;;;;5116039;28;20043;-73
2023/04/30 03:45:27;;;;;;;4.05;2.30;;;5.20;99.90;;;;;;5102574;28;20085;-73
2023/04/30 03:47:52;;;;;;;6.05;2.58;;;5.20;99.90;;;;;;5095879;28;20036;-73
2023/04/30 03:50:18;;;;;;;6.63;2.25;;;5.20;99.90;;;;;;5105101;28;20480;-73
2023/04/30 03:52:44;;;;;;;5.07;2.10;;;5.20;99.90;;;;;;5095325;28;20110;-73
2023/04/30 03:55:11;;;;;;;5.97;2.10;;;5.30;99.90;;;;;;5094539;28;20045;-72
2023/04/30 03:57:37;;;;;;;4.65;2.20;;;5.30;99.90;;;;;;5095255;28;20044;-73
2023/04/30 04:00:08;;;;;;;3.53;2.15;;;5.20;99.90;;;;;;5114856;28;20040;-72
2023/04/30 04:02:35;;;;;;;3.55;1.90;;;5.30;99.90;;;;;;5097923;28;20042;-72
2023/04/30 04:05:00;;;;;;;5.97;2.45;;;5.30;99.90;;;;;;5101158;28;20044;-72
2023/04/30 04:07:26;;;;;;;4.82;2.40;;;5.30;99.90;;;;;;5095785;28;20039;-73
2023/04/30 04:09:51;;;;;;;6.88;2.60;;;5.20;99.90;;;;;;5113357;28;20495;-73
2023/04/30 04:12:17;;;;;;;6.55;2.75;;;5.30;99.90;;;;;;5095877;28;20075;-73
2023/04/30 04:14:43;;;;;;;5.72;2.70;;;5.30;99.90;;;;;;5114228;28;20040;-73
2023/04/30 04:17:08;;;;;;;6.63;2.42;;;5.30;99.90;;;;;;5096868;28;20042;-73
2023/04/30 04:19:34;;;;;;;7.53;2.72;;;5.30;99.90;;;;;;5111368;28;20043;-73
2023/04/30 04:22:00;;;;;;;6.10;3.03;;;5.30;99.90;;;;;;5097435;28;20035;-73
2023/04/30 04:24:25;;;;;;;6.38;2.58;;;5.30;99.90;;;;;;5095208;28;20161;-73
2023/04/30 04:26:52;;;;;;;6.72;2.50;;;5.20;99.90;;;;;;5112868;27;20132;-73
2023/04/30 04:29:17;;;;;;;5.75;2.95;;;5.20;99.90;;;;;;5097170;28;20040;-73
2023/04/30 04:31:43;;;;;;;7.15;2.92;;;5.20;99.90;;;;;;5097113;28;20043;-73
2023/04/30 04:34:09;;;;;;;9.98;3.42;;;5.20;99.90;;;;;;5110744;28;20036;-73
2023/04/30 04:36:34;;;;;;;8.60;3.85;;;5.10;99.90;;;;;;5107559;28;20121;-73
2023/04/30 04:39:00;;;;;;;8.95;3.58;;;5.10;99.90;;;;;;5094605;28;20538;-73
2023/04/30 04:41:32;;;;;;;7.97;5.63;;;5.00;99.90;;;;;;5111934;28;20040;-73
2023/04/30 04:43:58;;;;;;;7.43;4.13;;;5.00;99.90;;;;;;5103592;28;20047;-73
2023/04/30 04:46:25;;;;;;;7.13;3.30;;;5.10;99.90;;;;;;5077471;28;20085;-73
2023/04/30 04:48:51;;;;;;;9.70;3.72;;;5.20;99.90;;;;;;5111653;28;20131;-73
2023/04/30 04:51:17;;;;;;;9.48;3.67;;;5.10;99.90;;;;;;5079492;28;20051;-73
2023/04/30 04:53:43;;;;;;;6.05;3.20;;;5.10;99.90;;;;;;5103645;28;20036;-73
2023/04/30 04:56:08;;;;;;;7.63;3.45;;;5.10;99.90;;;;;;5094909;28;20044;-73
2023/04/30 04:58:34;;;;;;;6.57;3.00;;;5.20;99.90;;;;;;5097572;28;20042;-73
2023/04/30 05:01:00;;;;;;;6.93;3.20;;;5.20;99.90;;;;;;5111884;28;20395;-73
2023/04/30 05:03:28;;;;;;;6.53;2.78;;;5.30;99.90;;;;;;5093801;28;20043;-73
2023/04/30 05:05:53;;;;;;;8.10;3.58;;;5.40;99.90;;;;;;5095949;28;20050;-74
2023/04/30 05:08:19;;;;;;;6.30;3.35;;;5.40;99.90;;;;;;5095384;28;20032;-73
2023/04/30 05:10:45;;;;;;;5.65;2.95;;;5.40;99.90;;;;;;5104673;28;20088;-73
2023/04/30 05:13:10;;;;;;;7.43;3.45;;;5.40;99.90;;;;;;5096479;28;20143;-73
2023/04/30 05:15:36;;;;;;;5.97;3.08;;;5.40;99.90;;;;;;5111728;28;20114;-73
2023/04/30 05:18:02;;;;;;;8.38;3.80;;;5.40;99.90;;;;;;5114173;28;20040;-73
2023/04/30 05:20:27;;;;;;;6.80;3.72;;;5.40;99.90;;;;;;5107051;28;20036;-73
2023/04/30 05:22:53;;;;;;;8.07;3.50;;;5.40;99.90;;;;;;5114413;28;20043;-73
2023/04/30 05:25:18;;;;;;;8.68;4.20;;;5.40;99.90;;;;;;5087312;28;20039;-73
2023/04/30 05:27:44;;;;;;;9.20;3.65;;;5.50;99.90;;;;;;5108562;28;20514;-73
2023/04/30 05:30:10;;;;;;;7.72;3.60;;;5.60;99.90;;;;;;5096054;28;20511;-73
2023/04/30 05:32:36;;;;;;;7.53;3.60;;;5.70;99.90;;;;;;5079470;28;20372;-73
2023/04/30 05:35:01;;;;;;;7.13;3.25;;;5.80;99.90;;;;;;5093692;28;20093;-73
2023/04/30 05:37:27;;;;;;;6.25;3.45;;;5.80;99.90;;;;;;5076439;28;20036;-73
2023/04/30 05:39:52;;;;;;;8.00;3.42;;;5.90;99.90;;;;;;5087658;28;20043;-73
2023/04/30 05:42:19;;;;;;;11.82;4.40;;;6.00;99.90;;;;;;5112854;28;20045;-73
2023/04/30 05:44:45;;;;;;;8.57;4.22;;;6.20;99.90;;;;;;5084898;28;20373;-73
2023/04/30 05:47:10;;;;;;;8.50;4.38;;;6.20;99.90;;;;;;5097001;28;20097;-73
2023/04/30 05:49:36;;;;;;;8.57;3.53;;;6.20;99.90;;;;;;5085020;28;20137;-73
2023/04/30 05:52:02;;;;;;;13.63;3.83;;;6.20;99.90;;;;;;5090719;28;20405;-73
2023/04/30 05:54:29;;;;;;;9.65;4.10;;;6.30;99.90;;;;;;5093922;28;20078;-73
2023/04/30 05:56:54;;;;;;;10.45;4.35;;;6.40;99.90;;;;;;5112388;28;20051;-73
2023/04/30 05:59:20;;;;;;;11.10;3.97;;;6.40;99.90;;;;;;5078474;28;20094;-73
2023/04/30 06:01:45;;;;;;;9.70;4.47;;;6.50;99.90;;;;;;5092990;28;20036;-73
2023/04/30 06:04:11;;;;;;;11.70;4.45;;;6.60;99.90;;;;;;5107068;28;20045;-73
2023/04/30 06:06:37;;;;;;;13.32;4.75;;;6.60;99.90;;;;;;5108239;28;20039;-73
2023/04/30 06:09:02;;;;;;;15.20;5.03;;;6.70;99.90;;;;;;5107008;28;20044;-73
2023/04/30 06:11:29;;;;;;;12.90;5.18;;;6.70;99.90;;;;;;5092372;28;20397;-73
2023/04/30 06:13:55;;;;;;;12.32;4.22;;;6.80;99.90;;;;;;5076075;28;20043;-73
2023/04/30 06:16:22;;;;;;;11.50;3.95;;;6.80;99.90;;;;;;5093961;28;20488;-73
2023/04/30 06:18:47;;;;;;;12.27;3.42;;;7.10;99.90;;;;;;5093562;28;20150;-73
2023/04/30 06:21:13;;;;;;;11.07;4.00;;;7.40;99.90;;;;;;5092975;28;20199;-73
2023/04/30 06:23:38;;;;;;;12.68;4.18;;;7.50;99.90;;;;;;5075738;28;20040;-73
2023/04/30 06:26:04;;;;;;;14.05;4.10;;;7.40;99.90;;;;;;5092388;28;20399;-73
2023/04/30 06:28:30;;;;;;;9.52;4.57;;;7.50;99.90;;;;;;5095832;28;20054;-73
2023/04/30 06:30:56;;;;;;;13.00;4.50;;;7.60;99.90;;;;;;5114416;27;20484;-73
2023/04/30 06:33:21;;;;;;;11.73;4.00;;;7.60;99.90;;;;;;5099572;28;20040;-73
2023/04/30 06:35:49;;;;;;;9.88;3.60;;;7.70;99.90;;;;;;5095021;28;20114;-73
2023/04/30 06:38:16;;;;;;;10.68;3.47;;;7.80;99.90;;;;;;5094177;28;20042;-73
2023/04/30 06:40:42;;;;;;;10.93;3.10;;;7.90;99.90;;;;;;5108560;28;20035;-73
2023/04/30 06:43:08;;;;;;;12.35;3.90;;;8.00;99.90;;;;;;5094593;28;20403;-73
2023/04/30 06:45:34;;;;;;;11.80;3.40;;;8.20;99.90;;;;;;5091466;28;20119;-73
2023/04/30 06:48:00;;;;;;;9.68;2.97;;;8.10;99.90;;;;;;5095513;28;20549;-73
2023/04/30 06:50:26;;;;;;;10.00;3.53;;;8.10;99.90;;;;;;5074839;28;20031;-73
2023/04/30 06:52:51;;;;;;;10.18;3.40;;;8.30;99.90;;;;;;5118782;27;20050;-73
2023/04/30 06:55:17;;;;;;;12.85;3.85;;;8.40;99.90;;;;;;5096823;28;20036;-73
2023/04/30 06:57:43;;;;;;;12.77;3.40;;;8.60;99.90;;;;;;5107547;28;20052;-73
2023/04/30 07:00:11;;;;;;;14.35;3.60;;;8.80;99.90;;;;;;5080463;28;20036;-71
2023/04/30 07:02:36;;;;;;;15.02;3.88;;;8.90;99.90;;;;;;5097714;28;20278;-74
2023/04/30 07:05:02;;;;;;;12.93;3.15;;;9.00;99.90;;;;;;5111621;28;20039;-73
2023/04/30 07:07:27;;;;;;;12.35;3.25;;;9.00;99.90;;;;;;5080918;28;20492;-73
2023/04/30 07:09:53;;;;;;;9.43;3.10;;;9.20;99.90;;;;;;5103840;28;20073;-73
2023/04/30 07:12:20;;;;;;;10.80;3.35;;;9.20;99.90;;;;;;5075732;28;20035;-73
2023/04/30 07:14:45;;;;;;;11.38;4.93;;;9.20;99.90;;;;;;5073969;28;20036;-73
2023/04/30 07:17:11;;;;;;;13.05;3.20;;;9.20;99.90;;;;;;5104732;28;20048;-73
2023/04/30 07:19:36;;;;;;;10.05;3.50;;;9.30;99.90;;;;;;5099910;28;20036;-73
2023/04/30 07:22:02;;;;;;;11.00;3.50;;;9.30;99.90;;;;;;5105434;28;20032;-73
2023/04/30 07:24:28;;;;;;;8.98;3.60;;;9.30;99.90;;;;;;5102941;28;20051;-73
2023/04/30 07:26:53;;;;;;;12.65;3.65;;;9.40;99.90;;;;;;5104696;28;20050;-73
2023/04/30 07:29:19;;;;;;;11.50;3.85;;;9.40;99.90;;;;;;5086864;28;20119;-73
2023/04/30 07:31:45;;;;;;;11.52;2.90;;;9.40;99.90;;;;;;5097286;28;20063;-73
2023/04/30 07:34:12;;;;;;;12.05;3.42;;;9.50;99.90;;;;;;5085442;28;20040;-73
2023/04/30 07:36:37;;;;;;;11.05;3.40;;;9.40;99.90;;;;;;5096839;28;20036;-73
2023/04/30 07:39:04;;;;;;;11.60;3.38;;;9.50;99.90;;;;;;5075238;28;20132;-73
2023/04/30 07:41:30;;;;;;;12.95;3.75;;;9.60;99.90;;;;;;5076075;28;20151;-73
2023/04/30 07:43:56;;;;;;;9.73;3.55;;;9.70;99.90;;;;;;5074855;28;20504;-74
2023/04/30 07:46:23;;;;;;;11.93;3.50;;;9.70;99.90;;;;;;5074741;28;20078;-74
2023/04/30 07:48:49;;;;;;;10.80;3.45;;;9.70;99.90;;;;;;5091045;28;20527;-73
2023/04/30 07:51:15;;;;;;;9.38;3.30;;;9.70;99.90;;;;;;5091205;28;20159;-73
2023/04/30 07:53:41;;;;;;;13.63;3.60;;;9.80;99.90;;;;;;5108178;28;20518;-73
2023/04/30 07:56:07;;;;;;;12.95;3.50;;;9.80;99.90;;;;;;5096040;28;20047;-74
2023/04/30 07:58:32;;;;;;;9.40;3.35;;;9.80;99.90;;;;;;5101613;28;20385;-74
2023/04/30 08:00:58;;;;;;;14.15;3.10;;;9.80;99.90;;;;;;5078748;28;20229;-73
2023/04/30 08:03:23;;;;;;;11.95;3.20;;;9.90;99.90;;;;;;5078633;28;20032;-73
2023/04/30 08:05:49;;;;;;;8.95;2.40;;;9.90;99.90;;;;;;5078357;28;20080;-74
2023/04/30 08:08:15;;;;;;;11.63;2.67;;;9.90;99.90;;;;;;5094181;28;20043;-74
2023/04/30 08:10:40;;;;;;;8.80;3.15;;;10.00;99.90;;;;;;5111037;28;20034;-74
2023/04/30 08:13:06;;;;;;;8.43;2.33;;;9.90;99.90;;;;;;5109062;28;20495;-73
2023/04/30 08:15:33;;;;;;;11.48;2.53;;;10.00;99.90;;;;;;5115441;28;20120;-74
2023/04/30 08:17:58;;;;;;;9.18;2.30;;;10.00;99.90;;;;;;5085745;28;20377;-73
2023/04/30 08:20:25;;;;;;;10.27;2.50;;;10.00;99.90;;;;;;5083047;28;20039;-73
2023/04/30 08:22:50;;;;;;;10.40;2.70;;;10.20;99.90;;;;;;5098313;28;20050;-73
2023/04/30 08:25:16;;;;;;;9.93;2.85;;;10.20;99.90;;;;;;5115464;28;20039;-73
2023/04/30 08:27:42;;;;;;;9.43;2.20;;;10.10;99.90;;;;;;5099075;28;20373;-73
2023/04/30 08:30:08;;;;;;;9.35;2.25;;;10.00;99.90;;;;;;5098419;28;20041;-73
2023/04/30 08:32:35;;;;;;;8.27;2.25;;;10.20;99.90;;;;;;5115154;28;20093;-73
2023/04/30 08:35:04;;;;;;;8.15;2.50;;;10.30;99.90;;;;;;5097337;28;20044;-74
2023/04/30 08:37:30;;;;;;;10.38;2.42;;;10.20;99.90;;;;;;5099383;28;20090;-73
2023/04/30 08:39:55;;;;;;;11.50;3.03;;;10.40;99.90;;;;;;5097893;28;20067;-73
2023/04/30 08:42:24;;;;;;;9.73;2.50;;;10.40;99.90;;;;;;5115005;28;20040;-73
2023/04/30 08:44:50;;;;;;;10.63;3.03;;;10.40;99.90;;;;;;5097877;28;20040;-74
2023/04/30 08:47:16;;;;;;;11.20;2.50;;;10.40;99.90;;;;;;5096099;28;20483;-73
2023/04/30 08:49:43;;;;;;;9.82;2.67;;;10.50;99.90;;;;;;5097891;28;20039;-73
2023/04/30 08:52:09;;;;;;;7.80;3.25;;;10.60;99.90;;;;;;5097811;28;20042;-74
2023/04/30 08:54:36;;;;;;;7.93;2.63;;;10.70;99.90;;;;;;5089815;28;20489;-74
2023/04/30 08:57:03;;;;;;;12.57;2.92;;;10.70;99.90;;;;;;5120523;27;20531;-73
2023/04/30 08:59:29;;;;;;;9.57;2.50;;;10.70;99.90;;;;;;5097455;28;20040;-73
2023/04/30 09:01:55;;;;;;;10.77;3.47;;;10.90;99.90;;;;;;5114551;28;20039;-74
2023/04/30 09:04:20;;;;;;;14.80;3.28;;;10.90;99.90;;;;;;5114539;28;20445;-74
2023/04/30 09:06:46;;;;;;;8.23;2.58;;;11.00;99.90;;;;;;5114362;28;20391;-74
2023/04/30 09:09:14;;;;;;;8.75;2.83;;;11.10;99.90;;;;;;5113790;28;20043;-73
2023/04/30 09:11:40;;;;;;;7.93;2.53;;;11.20;99.90;;;;;;5097367;28;20043;-73
2023/04/30 09:14:06;;;;;;;9.77;3.13;;;11.20;99.90;;;;;;5091458;28;20400;-73
2023/04/30 09:16:50;;;;;;;11.50;3.47;;;11.30;99.90;;;;;;5099677;27;20423;-73
2023/04/30 09:19:27;;;;;;;10.20;3.33;;;11.30;99.90;;;;;;5097160;28;20042;-73
2023/04/30 09:21:55;;;;;;;7.45;2.60;;;11.40;99.90;;;;;;5097415;28;20035;-73
2023/04/30 09:24:21;;;;;;;9.55;3.20;;;11.60;99.90;;;;;;5106719;28;20085;-73
2023/04/30 09:26:47;;;;;;;10.55;2.78;;;11.70;99.90;;;;;;5097102;28;20044;-73
2023/04/30 09:29:12;;;;;;;7.53;3.35;;;11.60;99.90;;;;;;5114001;28;20046;-74
2023/04/30 09:31:41;;;;;;;8.90;3.08;;;11.60;99.90;;;;;;5111096;28;20110;-74
2023/04/30 09:34:07;;;;;;;7.60;2.72;;;11.60;99.90;;;;;;5096819;28;20127;-73
2023/04/30 09:36:33;;;;;;;10.40;2.33;;;11.80;99.90;;;;;;5114149;28;20150;-72
2023/04/30 09:39:17;;;;;;;9.38;3.10;;;11.90;99.90;;;;;;5093180;28;20790;-73
2023/04/30 09:41:43;;;;;;;10.00;2.83;;;12.10;99.90;;;;;;5113152;28;20190;-73
2023/04/30 09:44:26;;;;;;;8.98;2.95;;;12.20;99.90;;;;;;5113736;28;20119;-73
2023/04/30 09:46:52;;;;;;;9.30;2.88;;;12.30;99.90;;;;;;5097006;28;20044;-73
2023/04/30 09:49:18;;;;;;;8.50;3.08;;;12.50;99.90;;;;;;5130619;27;20032;-73
2023/04/30 09:51:57;;;;;;;9.65;2.83;;;12.40;99.90;;;;;;5105844;28;20031;-73
2023/04/30 09:54:28;;;;;;;10.48;3.22;;;12.30;99.90;;;;;;5113665;28;20134;-73
2023/04/30 09:56:56;;;;;;;10.20;3.30;;;12.50;99.90;;;;;;5106492;28;20059;-73
2023/04/30 09:59:38;;;;;;;9.13;3.17;;;12.50;99.90;;;;;;5096462;28;20027;-73
2023/04/30 10:02:07;;;;;;;10.90;3.60;;;12.40;99.90;;;;;;5096418;28;20092;-73
2023/04/30 10:04:40;;;;;;;8.95;3.22;;;12.40;99.90;;;;;;5096334;28;20043;-73
2023/04/30 10:07:18;;;;;;;10.13;2.95;;;12.40;99.90;;;;;;5096613;28;20387;-73
2023/04/30 10:10:00;;;;;;;10.50;2.88;;;12.60;99.90;;;;;;5093589;28;20093;-73
2023/04/30 10:12:52;;;;;;;12.25;2.92;;;12.70;99.90;;;;;;5075935;28;20049;-73
2023/04/30 10:15:25;;;;;;;9.95;2.97;;;12.90;99.90;;;;;;5102055;28;20047;-73
2023/04/30 10:18:03;;;;;;;9.65;2.83;;;13.00;99.90;;;;;;5096395;28;20084;-73
2023/04/30 10:20:30;;;;;;;11.07;3.08;;;13.10;99.90;;;;;;5112153;28;20495;-73
2023/04/30 10:22:56;;;;;;;9.05;2.92;;;13.10;99.90;;;;;;5113030;28;20056;-73
2023/04/30 10:25:22;;;;;;;13.20;3.92;;;13.00;99.90;;;;;;5096234;28;20043;-73
2023/04/30 10:27:48;;;;;;;9.63;2.88;;;12.90;99.90;;;;;;5110647;28;20531;-73
2023/04/30 10:30:14;;;;;;;10.93;3.65;;;13.10;99.90;;;;;;5104688;28;20071;-73
2023/04/30 10:32:50;;;;;;;9.30;3.30;;;13.20;99.90;;;;;;5090416;28;20075;-73
2023/04/30 10:35:25;;;;;;;9.98;3.30;;;13.40;99.90;;;;;;5103828;28;20074;-73
2023/04/30 10:37:58;;;;;;;9.38;3.20;;;13.50;99.90;;;;;;5092406;28;20044;-73
2023/04/30 10:40:26;;;;;;;10.85;3.40;;;13.70;99.90;;;;;;5075515;28;20488;-72
2023/04/30 10:42:53;;;;;;;7.32;2.97;;;13.70;99.90;;;;;;5092521;28;20384;-72
2023/04/30 10:45:37;;;;;;;11.60;2.90;;;13.80;99.90;;;;;;5092305;28;20040;-73
2023/04/30 10:48:04;;;;;;;7.57;3.10;;;13.90;99.90;;;;;;5085434;28;20396;-73
2023/04/30 10:50:30;;;;;;;9.18;2.60;;;14.00;99.90;;;;;;5109120;28;20040;-73
2023/04/30 10:53:03;;;;;;;10.75;3.47;;;14.20;99.90;;;;;;5092222;28;20040;-73
2023/04/30 10:55:29;;;;;;;6.72;2.70;;;14.20;99.90;;;;;;5108874;28;20445;-73
2023/04/30 10:57:56;;;;;;;7.78;2.70;;;14.10;99.90;;;;;;5109145;28;20119;-73
2023/04/30 11:00:27;;;;;;;12.57;3.67;;;14.30;99.90;;;;;;5091932;28;20109;-73
2023/04/30 11:03:01;;;;;;;10.70;3.10;;;14.30;99.90;;;;;;5108164;28;20090;-73
2023/04/30 11:05:36;;;;;;;8.88;3.40;;;14.40;99.90;;;;;;5087194;28;20044;-73
2023/04/30 11:08:02;;;;;;;8.35;3.13;;;14.50;99.90;;;;;;5110765;28;20555;-73
2023/04/30 11:10:32;;;;;;;7.00;2.83;;;14.60;99.90;;;;;;5104564;28;20050;-73
2023/04/30 11:13:02;;;;;;;7.38;3.10;;;14.60;99.90;;;;;;5110591;28;20123;-73
2023/04/30 11:15:35;;;;;;;7.13;2.97;;;14.60;99.90;;;;;;5112233;28;20040;-73
2023/04/30 11:18:01;;;;;;;7.88;2.60;;;14.60;99.90;;;;;;5083717;28;20044;-73
2023/04/30 11:20:27;;;;;;;10.90;3.30;;;14.70;99.90;;;;;;5075061;28;20097;-73
2023/04/30 11:23:10;;;;;;;7.35;3.13;;;14.70;99.90;;;;;;5093253;28;20559;-73
2023/04/30 11:25:43;;;;;;;9.77;3.05;;;14.60;99.90;;;;;;5095692;28;20043;-74
2023/04/30 11:28:25;;;;;;;7.43;3.40;;;14.50;99.90;;;;;;5099201;28;20039;-74
2023/04/30 11:30:55;;;;;;;;;;;14.50;99.90;;;;;;5075852;28;20047;-74
2023/04/30 11:33:24;;;;;;;7.53;3.08;;;14.50;99.90;;;;;;5096142;28;19916;-73
2023/04/30 11:35:51;;;;;;;7.90;3.00;;;14.60;99.90;;;;;;5078765;28;20031;-70
2023/04/30 11:38:20;;;;;;;8.65;3.38;;;14.60;99.90;;;;;;5094006;28;20040;-71
2023/04/30 11:40:47;;;;;;;8.68;3.40;;;14.70;99.90;;;;;;5116144;28;20039;-73
2023/04/30 11:43:30;;;;;;;8.75;3.10;;;14.50;99.90;;;;;;5109173;28;20118;-73
2023/04/30 11:46:13;;;;;;;9.02;3.10;;;14.50;99.90;;;;;;5097570;28;20039;-73
2023/04/30 11:48:41;;;;;;;8.63;3.15;;;14.70;99.90;;;;;;5096024;28;20036;-73
2023/04/30 11:51:19;;;;;;;7.55;3.65;;;14.50;99.90;;;;;;5095402;28;20158;-73
2023/04/30 11:53:49;;;;;;;7.85;3.20;;;14.70;99.90;;;;;;5100213;28;20491;-73
2023/04/30 11:56:20;;;;;;;6.03;2.72;;;14.60;99.90;;;;;;5093594;28;20047;-74
2023/04/30 11:58:46;;;;;;;5.85;2.80;;;14.70;99.90;;;;;;5095245;28;20043;-72
2023/04/30 12:01:12;;;;;;;5.82;2.95;;;14.70;99.90;;;;;;5077294;28;20032;-72
2023/04/30 12:03:43;;;;;;;7.82;4.05;;;14.80;99.90;;;;;;5122813;27;20531;-73
2023/04/30 12:06:10;;;;;;;8.02;3.30;;;14.60;99.90;;;;;;5095320;28;20051;-72
2023/04/30 12:08:36;;;;;;;7.22;3.20;;;14.70;99.90;;;;;;5099150;28;20510;-72
2023/04/30 12:11:02;;;;;;;7.72;3.50;;;14.80;99.90;;;;;;5076674;28;20399;-74
2023/04/30 12:13:30;;;;;;;7.70;3.35;;;14.80;99.90;;;;;;5096248;28;20028;-73
2023/04/30 12:15:58;;;;;;;7.13;3.47;;;14.90;99.90;;;;;;5102604;27;20032;-72
2023/04/30 12:18:23;;;;;;;8.13;3.70;;;14.90;99.90;;;;;;5099810;28;20872;-73
2023/04/30 12:20:49;;;;;;;7.68;3.72;;;15.00;99.90;;;;;;5079724;28;20068;-73
2023/04/30 12:23:15;;;;;;;9.25;3.50;;;14.80;99.90;;;;;;5097925;28;20036;-72
2023/04/30 12:25:42;;;;;;;6.13;3.15;;;14.90;99.90;;;;;;5082291;28;20035;-73
2023/04/30 12:28:10;;;;;;;6.68;3.30;;;15.00;99.90;;;;;;5099910;28;20431;-72
2023/04/30 12:30:36;;;;;;;6.72;3.15;;;15.00;99.90;;;;;;5088417;28;20491;-72
2023/04/30 12:33:02;;;;;;;9.25;3.42;;;15.00;99.90;;;;;;5105992;27;20483;-73
2023/04/30 12:35:32;;;;;;;7.70;3.40;;;14.90;99.90;;;;;;5089207;28;20111;-73
2023/04/30 12:38:08;;;;;;;7.57;3.05;;;15.00;99.90;;;;;;5092803;28;20039;-73
2023/04/30 12:40:34;;;;;;;5.13;2.60;;;15.00;99.90;;;;;;5079059;28;20034;-73
2023/04/30 12:43:05;;;;;;;6.90;2.90;;;15.10;99.90;;;;;;5099890;28;20036;-72
2023/04/30 12:45:51;;;;;;;8.70;2.97;;;15.10;99.90;;;;;;5093601;28;20508;-73
2023/04/30 12:48:19;;;;;;;7.22;3.08;;;15.10;99.90;;;;;;5100892;28;20281;-73
2023/04/30 12:50:59;;;;;;;6.90;3.38;;;15.20;99.90;;;;;;5078508;28;20114;-73
2023/04/30 12:53:24;;;;;;;10.88;3.67;;;15.30;99.90;;;;;;5076425;28;20039;-73